sensor_id;sensor_type;location;lat;lon;timestamp;temperature;humidity
25024;DHT22;13033;50.936;5.334;2022-08-19T00:00:28;22.00;64.00
25024;DHT22;13033;50.936;5.334;2022-08-19T00:02:54;21.90;63.20
25024;DHT22;13033;50.936;5.334;2022-08-19T00:05:21;21.70;68.00
25024;DHT22;13033;50.936;5.334;2022-08-19T00:07:47;21.70;71.30
25024;DHT22;13033;50.936;5.334;2022-08-19T00:10:15;21.60;73.50
25024;DHT22;13033;50.936;5.334;2022-08-19T00:12:41;21.70;71.90
25024;DHT22;13033;50.936;5.334;2022-08-19T00:15:09;21.70;71.80
25024;DHT22;13033;50.936;5.334;2022-08-19T00:17:38;21.60;71.60
25024;DHT22;13033;50.936;5.334;2022-08-19T00:20:04;21.70;72.00
25024;DHT22;13033;50.936;5.334;2022-08-19T00:22:30;21.60;72.30
25024;DHT22;13033;50.936;5.334;2022-08-19T00:24:56;21.40;75.20
25024;DHT22;13033;50.936;5.334;2022-08-19T00:27:22;21.50;76.70
25024;DHT22;13033;50.936;5.334;2022-08-19T00:29:48;21.50;75.10
25024;DHT22;13033;50.936;5.334;2022-08-19T00:32:13;21.40;76.90
25024;DHT22;13033;50.936;5.334;2022-08-19T00:34:39;21.30;79.60
25024;DHT22;13033;50.936;5.334;2022-08-19T00:37:05;21.40;79.10
25024;DHT22;13033;50.936;5.334;2022-08-19T00:39:30;21.20;81.60
25024;DHT22;13033;50.936;5.334;2022-08-19T00:41:56;21.20;81.20
25024;DHT22;13033;50.936;5.334;2022-08-19T00:44:26;21.20;81.50
25024;DHT22;13033;50.936;5.334;2022-08-19T00:46:54;21.10;83.30
25024;DHT22;13033;50.936;5.334;2022-08-19T00:49:27;21.20;83.20
25024;DHT22;13033;50.936;5.334;2022-08-19T00:52:03;21.10;84.20
25024;DHT22;13033;50.936;5.334;2022-08-19T00:54:30;21.20;83.80
25024;DHT22;13033;50.936;5.334;2022-08-19T00:56:57;21.20;83.70
25024;DHT22;13033;50.936;5.334;2022-08-19T00:59:23;21.10;83.40
25024;DHT22;13033;50.936;5.334;2022-08-19T01:01:49;21.20;81.10
25024;DHT22;13033;50.936;5.334;2022-08-19T01:04:15;21.20;81.90
25024;DHT22;13033;50.936;5.334;2022-08-19T01:06:40;21.20;79.90
25024;DHT22;13033;50.936;5.334;2022-08-19T01:09:07;21.20;78.90
25024;DHT22;13033;50.936;5.334;2022-08-19T01:11:35;21.10;81.10
25024;DHT22;13033;50.936;5.334;2022-08-19T01:14:02;20.90;85.10
25024;DHT22;13033;50.936;5.334;2022-08-19T01:16:29;20.90;84.30
25024;DHT22;13033;50.936;5.334;2022-08-19T01:18:57;20.90;84.80
25024;DHT22;13033;50.936;5.334;2022-08-19T01:21:40;20.80;87.50
25024;DHT22;13033;50.936;5.334;2022-08-19T01:24:07;20.50;91.30
25024;DHT22;13033;50.936;5.334;2022-08-19T01:26:39;20.50;92.00
25024;DHT22;13033;50.936;5.334;2022-08-19T01:29:07;20.50;92.60
25024;DHT22;13033;50.936;5.334;2022-08-19T01:31:34;20.50;92.40
25024;DHT22;13033;50.936;5.334;2022-08-19T01:34:01;20.50;92.10
25024;DHT22;13033;50.936;5.334;2022-08-19T01:38:55;20.60;91.20
25024;DHT22;13033;50.936;5.334;2022-08-19T01:41:21;20.50;90.60
25024;DHT22;13033;50.936;5.334;2022-08-19T01:43:49;20.30;92.40
25024;DHT22;13033;50.936;5.334;2022-08-19T01:46:16;20.50;91.20
25024;DHT22;13033;50.936;5.334;2022-08-19T01:48:42;20.50;90.80
25024;DHT22;13033;50.936;5.334;2022-08-19T01:51:09;20.50;90.30
25024;DHT22;13033;50.936;5.334;2022-08-19T01:53:35;20.50;90.80
25024;DHT22;13033;50.936;5.334;2022-08-19T01:56:02;20.40;91.80
25024;DHT22;13033;50.936;5.334;2022-08-19T01:58:38;20.20;93.40
25024;DHT22;13033;50.936;5.334;2022-08-19T02:01:07;20.40;91.60
25024;DHT22;13033;50.936;5.334;2022-08-19T02:03:33;20.50;90.50
25024;DHT22;13033;50.936;5.334;2022-08-19T02:06:03;20.50;88.70
25024;DHT22;13033;50.936;5.334;2022-08-19T02:08:31;20.40;89.80
25024;DHT22;13033;50.936;5.334;2022-08-19T02:10:56;20.20;92.10
25024;DHT22;13033;50.936;5.334;2022-08-19T02:13:23;20.20;92.50
25024;DHT22;13033;50.936;5.334;2022-08-19T02:15:49;20.10;92.30
25024;DHT22;13033;50.936;5.334;2022-08-19T02:18:14;20.30;91.70
25024;DHT22;13033;50.936;5.334;2022-08-19T02:20:41;20.40;90.30
25024;DHT22;13033;50.936;5.334;2022-08-19T02:23:10;20.40;87.70
25024;DHT22;13033;50.936;5.334;2022-08-19T02:25:36;20.30;90.30
25024;DHT22;13033;50.936;5.334;2022-08-19T02:28:02;20.10;91.10
25024;DHT22;13033;50.936;5.334;2022-08-19T02:30:28;20.00;92.90
25024;DHT22;13033;50.936;5.334;2022-08-19T02:32:54;19.90;93.90
25024;DHT22;13033;50.936;5.334;2022-08-19T02:35:20;19.80;94.80
25024;DHT22;13033;50.936;5.334;2022-08-19T02:37:45;19.90;94.50
25024;DHT22;13033;50.936;5.334;2022-08-19T02:40:31;20.10;91.80
25024;DHT22;13033;50.936;5.334;2022-08-19T02:43:03;20.30;90.00
25024;DHT22;13033;50.936;5.334;2022-08-19T02:45:35;20.00;91.80
25024;DHT22;13033;50.936;5.334;2022-08-19T02:48:03;20.00;92.00
25024;DHT22;13033;50.936;5.334;2022-08-19T02:50:31;19.90;92.90
25024;DHT22;13033;50.936;5.334;2022-08-19T02:52:57;20.00;92.70
25024;DHT22;13033;50.936;5.334;2022-08-19T02:55:22;19.80;94.10
25024;DHT22;13033;50.936;5.334;2022-08-19T02:57:48;19.70;94.90
25024;DHT22;13033;50.936;5.334;2022-08-19T03:00:15;19.80;95.30
25024;DHT22;13033;50.936;5.334;2022-08-19T03:02:41;20.00;93.60
25024;DHT22;13033;50.936;5.334;2022-08-19T03:05:08;19.90;93.30
25024;DHT22;13033;50.936;5.334;2022-08-19T03:07:35;20.00;92.50
25024;DHT22;13033;50.936;5.334;2022-08-19T03:10:01;20.00;92.80
25024;DHT22;13033;50.936;5.334;2022-08-19T03:12:27;19.80;94.00
25024;DHT22;13033;50.936;5.334;2022-08-19T03:14:52;19.60;95.40
25024;DHT22;13033;50.936;5.334;2022-08-19T03:17:19;19.40;97.50
25024;DHT22;13033;50.936;5.334;2022-08-19T03:19:44;19.30;98.60
25024;DHT22;13033;50.936;5.334;2022-08-19T03:22:10;19.50;98.60
25024;DHT22;13033;50.936;5.334;2022-08-19T03:24:37;19.70;95.90
25024;DHT22;13033;50.936;5.334;2022-08-19T03:27:03;19.80;94.90
25024;DHT22;13033;50.936;5.334;2022-08-19T03:29:31;19.80;94.10
25024;DHT22;13033;50.936;5.334;2022-08-19T03:32:03;19.80;95.20
25024;DHT22;13033;50.936;5.334;2022-08-19T03:34:31;19.70;95.90
25024;DHT22;13033;50.936;5.334;2022-08-19T03:37:01;19.70;95.60
25024;DHT22;13033;50.936;5.334;2022-08-19T03:39:28;19.70;95.70
25024;DHT22;13033;50.936;5.334;2022-08-19T03:41:54;19.60;96.50
25024;DHT22;13033;50.936;5.334;2022-08-19T03:44:26;19.50;97.30
25024;DHT22;13033;50.936;5.334;2022-08-19T03:46:54;19.30;98.30
25024;DHT22;13033;50.936;5.334;2022-08-19T03:49:22;19.30;99.30
25024;DHT22;13033;50.936;5.334;2022-08-19T03:51:49;19.50;97.70
25024;DHT22;13033;50.936;5.334;2022-08-19T03:54:20;19.50;97.60
25024;DHT22;13033;50.936;5.334;2022-08-19T03:56:47;19.50;97.70
25024;DHT22;13033;50.936;5.334;2022-08-19T03:59:19;19.60;97.00
25024;DHT22;13033;50.936;5.334;2022-08-19T04:01:45;19.40;98.30
25024;DHT22;13033;50.936;5.334;2022-08-19T04:04:11;19.30;98.50
25024;DHT22;13033;50.936;5.334;2022-08-19T04:06:38;19.40;98.20
25024;DHT22;13033;50.936;5.334;2022-08-19T04:09:06;19.10;99.90
25024;DHT22;13033;50.936;5.334;2022-08-19T04:11:36;19.30;99.80
25024;DHT22;13033;50.936;5.334;2022-08-19T04:14:05;19.30;99.80
25024;DHT22;13033;50.936;5.334;2022-08-19T04:16:31;19.40;99.00
25024;DHT22;13033;50.936;5.334;2022-08-19T04:18:59;19.40;98.40
25024;DHT22;13033;50.936;5.334;2022-08-19T04:21:26;19.40;98.50
25024;DHT22;13033;50.936;5.334;2022-08-19T04:23:53;19.40;98.40
25024;DHT22;13033;50.936;5.334;2022-08-19T04:26:25;19.30;99.00
25024;DHT22;13033;50.936;5.334;2022-08-19T04:28:51;19.30;99.20
25024;DHT22;13033;50.936;5.334;2022-08-19T04:31:22;19.30;98.70
25024;DHT22;13033;50.936;5.334;2022-08-19T04:33:52;19.30;98.90
25024;DHT22;13033;50.936;5.334;2022-08-19T04:36:30;19.30;98.20
25024;DHT22;13033;50.936;5.334;2022-08-19T04:38:58;19.30;98.40
25024;DHT22;13033;50.936;5.334;2022-08-19T04:41:25;19.10;99.90
25024;DHT22;13033;50.936;5.334;2022-08-19T04:44:09;19.00;99.90
25024;DHT22;13033;50.936;5.334;2022-08-19T04:46:36;19.00;99.90
25024;DHT22;13033;50.936;5.334;2022-08-19T04:49:03;19.00;99.90
25024;DHT22;13033;50.936;5.334;2022-08-19T04:51:31;19.00;99.90
25024;DHT22;13033;50.936;5.334;2022-08-19T04:53:57;19.00;99.90
25024;DHT22;13033;50.936;5.334;2022-08-19T04:56:25;19.20;99.60
25024;DHT22;13033;50.936;5.334;2022-08-19T04:58:53;19.30;98.40
25024;DHT22;13033;50.936;5.334;2022-08-19T05:01:26;19.10;98.90
25024;DHT22;13033;50.936;5.334;2022-08-19T05:03:52;19.00;99.90
25024;DHT22;13033;50.936;5.334;2022-08-19T05:06:19;19.10;99.50
25024;DHT22;13033;50.936;5.334;2022-08-19T05:08:46;19.20;99.10
25024;DHT22;13033;50.936;5.334;2022-08-19T05:11:14;19.30;98.80
25024;DHT22;13033;50.936;5.334;2022-08-19T05:13:42;19.00;99.70
25024;DHT22;13033;50.936;5.334;2022-08-19T05:16:10;18.70;99.90
25024;DHT22;13033;50.936;5.334;2022-08-19T05:18:36;18.70;99.90
25024;DHT22;13033;50.936;5.334;2022-08-19T05:21:20;18.70;99.90
25024;DHT22;13033;50.936;5.334;2022-08-19T05:24:05;18.80;99.90
25024;DHT22;13033;50.936;5.334;2022-08-19T05:26:39;18.70;99.90
25024;DHT22;13033;50.936;5.334;2022-08-19T05:29:06;18.70;99.90
25024;DHT22;13033;50.936;5.334;2022-08-19T05:31:33;18.80;99.90
25024;DHT22;13033;50.936;5.334;2022-08-19T05:33:59;18.90;99.90
25024;DHT22;13033;50.936;5.334;2022-08-19T05:36:26;18.90;99.90
25024;DHT22;13033;50.936;5.334;2022-08-19T05:38:53;18.90;99.90
25024;DHT22;13033;50.936;5.334;2022-08-19T05:41:19;19.10;99.90
25024;DHT22;13033;50.936;5.334;2022-08-19T05:43:45;19.00;99.90
25024;DHT22;13033;50.936;5.334;2022-08-19T05:46:19;18.80;99.90
25024;DHT22;13033;50.936;5.334;2022-08-19T05:48:45;19.00;99.90
25024;DHT22;13033;50.936;5.334;2022-08-19T05:51:11;18.90;99.90
25024;DHT22;13033;50.936;5.334;2022-08-19T05:53:37;19.00;99.90
25024;DHT22;13033;50.936;5.334;2022-08-19T05:56:07;19.10;99.90
25024;DHT22;13033;50.936;5.334;2022-08-19T05:58:34;19.20;99.90
25024;DHT22;13033;50.936;5.334;2022-08-19T06:00:59;19.10;99.90
25024;DHT22;13033;50.936;5.334;2022-08-19T06:03:31;19.20;99.00
25024;DHT22;13033;50.936;5.334;2022-08-19T06:05:58;19.20;97.20
25024;DHT22;13033;50.936;5.334;2022-08-19T06:08:28;19.40;97.20
25024;DHT22;13033;50.936;5.334;2022-08-19T06:10:54;19.20;97.30
25024;DHT22;13033;50.936;5.334;2022-08-19T06:13:20;19.00;99.10
25024;DHT22;13033;50.936;5.334;2022-08-19T06:15:46;19.10;98.40
25024;DHT22;13033;50.936;5.334;2022-08-19T06:18:14;19.10;98.30
25024;DHT22;13033;50.936;5.334;2022-08-19T06:20:40;19.20;97.60
25024;DHT22;13033;50.936;5.334;2022-08-19T06:23:06;19.40;96.30
25024;DHT22;13033;50.936;5.334;2022-08-19T06:25:32;19.20;97.20
25024;DHT22;13033;50.936;5.334;2022-08-19T06:27:58;19.20;96.70
25024;DHT22;13033;50.936;5.334;2022-08-19T06:30:24;19.00;97.90
25024;DHT22;13033;50.936;5.334;2022-08-19T06:32:49;19.00;99.20
25024;DHT22;13033;50.936;5.334;2022-08-19T06:35:15;19.00;99.10
25024;DHT22;13033;50.936;5.334;2022-08-19T06:37:41;19.20;98.20
25024;DHT22;13033;50.936;5.334;2022-08-19T06:40:08;19.30;96.80
25024;DHT22;13033;50.936;5.334;2022-08-19T06:42:36;19.50;96.40
25024;DHT22;13033;50.936;5.334;2022-08-19T06:45:04;19.50;95.10
25024;DHT22;13033;50.936;5.334;2022-08-19T06:47:30;19.40;95.10
25024;DHT22;13033;50.936;5.334;2022-08-19T06:49:58;19.00;97.60
25024;DHT22;13033;50.936;5.334;2022-08-19T06:52:37;18.90;99.20
25024;DHT22;13033;50.936;5.334;2022-08-19T06:55:05;18.80;99.90
25024;DHT22;13033;50.936;5.334;2022-08-19T06:57:31;19.10;99.00
25024;DHT22;13033;50.936;5.334;2022-08-19T06:59:58;19.10;98.80
25024;DHT22;13033;50.936;5.334;2022-08-19T07:02:25;19.30;98.30
25024;DHT22;13033;50.936;5.334;2022-08-19T07:04:52;19.60;96.10
25024;DHT22;13033;50.936;5.334;2022-08-19T07:07:18;19.70;94.60
25024;DHT22;13033;50.936;5.334;2022-08-19T07:09:45;19.80;94.30
25024;DHT22;13033;50.936;5.334;2022-08-19T07:12:13;19.90;92.70
25024;DHT22;13033;50.936;5.334;2022-08-19T07:14:41;20.20;90.30
25024;DHT22;13033;50.936;5.334;2022-08-19T07:17:09;20.50;84.40
25024;DHT22;13033;50.936;5.334;2022-08-19T07:19:36;20.70;80.20
25024;DHT22;13033;50.936;5.334;2022-08-19T07:22:04;20.70;75.70
25024;DHT22;13033;50.936;5.334;2022-08-19T07:24:30;20.60;80.30
25024;DHT22;13033;50.936;5.334;2022-08-19T07:26:58;21.00;73.30
25024;DHT22;13033;50.936;5.334;2022-08-19T07:29:27;21.10;68.30
25024;DHT22;13033;50.936;5.334;2022-08-19T07:31:54;21.10;66.70
25024;DHT22;13033;50.936;5.334;2022-08-19T07:34:23;21.00;70.40
25024;DHT22;13033;50.936;5.334;2022-08-19T07:36:50;21.00;68.10
25024;DHT22;13033;50.936;5.334;2022-08-19T07:39:22;20.70;73.40
25024;DHT22;13033;50.936;5.334;2022-08-19T07:41:48;20.60;80.40
25024;DHT22;13033;50.936;5.334;2022-08-19T07:44:16;20.90;72.50
25024;DHT22;13033;50.936;5.334;2022-08-19T07:46:44;21.20;64.80
25024;DHT22;13033;50.936;5.334;2022-08-19T07:49:11;21.00;68.80
25024;DHT22;13033;50.936;5.334;2022-08-19T07:51:43;20.90;71.50
25024;DHT22;13033;50.936;5.334;2022-08-19T07:54:10;20.70;75.80
25024;DHT22;13033;50.936;5.334;2022-08-19T07:56:37;21.00;68.10
25024;DHT22;13033;50.936;5.334;2022-08-19T07:59:03;21.20;63.70
25024;DHT22;13033;50.936;5.334;2022-08-19T08:01:30;21.00;68.90
25024;DHT22;13033;50.936;5.334;2022-08-19T08:03:56;21.30;65.20
25024;DHT22;13033;50.936;5.334;2022-08-19T08:06:41;21.30;62.10
25024;DHT22;13033;50.936;5.334;2022-08-19T08:09:32;21.10;65.10
25024;DHT22;13033;50.936;5.334;2022-08-19T08:12:21;21.50;58.40
25024;DHT22;13033;50.936;5.334;2022-08-19T08:14:51;21.80;52.50
25024;DHT22;13033;50.936;5.334;2022-08-19T08:17:19;21.90;47.30
25024;DHT22;13033;50.936;5.334;2022-08-19T08:19:46;21.80;44.00
25024;DHT22;13033;50.936;5.334;2022-08-19T08:22:16;21.80;49.10
25024;DHT22;13033;50.936;5.334;2022-08-19T08:25:06;22.00;44.10
25024;DHT22;13033;50.936;5.334;2022-08-19T08:27:37;21.70;47.00
25024;DHT22;13033;50.936;5.334;2022-08-19T08:30:06;21.60;48.90
25024;DHT22;13033;50.936;5.334;2022-08-19T08:32:38;21.90;45.40
25024;DHT22;13033;50.936;5.334;2022-08-19T08:35:15;22.10;41.40
25024;DHT22;13033;50.936;5.334;2022-08-19T08:37:42;22.40;36.60
25024;DHT22;13033;50.936;5.334;2022-08-19T08:40:31;22.60;30.80
25024;DHT22;13033;50.936;5.334;2022-08-19T08:43:04;23.00;19.90
25024;DHT22;13033;50.936;5.334;2022-08-19T08:45:33;23.30;3.20
25024;DHT22;13033;50.936;5.334;2022-08-19T08:48:07;23.30;1.00
25024;DHT22;13033;50.936;5.334;2022-08-19T08:50:41;23.30;1.70
25024;DHT22;13033;50.936;5.334;2022-08-19T08:53:08;23.20;2.10
25024;DHT22;13033;50.936;5.334;2022-08-19T08:55:35;23.20;1.00
25024;DHT22;13033;50.936;5.334;2022-08-19T08:58:14;23.00;4.00
25024;DHT22;13033;50.936;5.334;2022-08-19T09:00:45;23.10;1.10
25024;DHT22;13033;50.936;5.334;2022-08-19T09:03:25;23.20;1.00
25024;DHT22;13033;50.936;5.334;2022-08-19T09:06:07;23.30;1.00
25024;DHT22;13033;50.936;5.334;2022-08-19T09:09:03;23.30;1.00
25024;DHT22;13033;50.936;5.334;2022-08-19T09:11:50;23.10;1.00
25024;DHT22;13033;50.936;5.334;2022-08-19T09:14:34;23.20;1.00
25024;DHT22;13033;50.936;5.334;2022-08-19T09:17:01;23.20;1.00
25024;DHT22;13033;50.936;5.334;2022-08-19T09:19:29;22.80;10.70
25024;DHT22;13033;50.936;5.334;2022-08-19T09:21:55;22.70;4.90
25024;DHT22;13033;50.936;5.334;2022-08-19T09:24:21;22.50;2.60
25024;DHT22;13033;50.936;5.334;2022-08-19T09:26:47;22.90;1.00
25024;DHT22;13033;50.936;5.334;2022-08-19T09:29:12;23.40;1.00
25024;DHT22;13033;50.936;5.334;2022-08-19T09:31:38;23.50;1.00
25024;DHT22;13033;50.936;5.334;2022-08-19T09:34:04;23.30;1.00
25024;DHT22;13033;50.936;5.334;2022-08-19T09:36:30;23.50;1.00
25024;DHT22;13033;50.936;5.334;2022-08-19T09:38:59;23.60;1.00
25024;DHT22;13033;50.936;5.334;2022-08-19T09:41:26;24.00;1.00
25024;DHT22;13033;50.936;5.334;2022-08-19T09:43:54;24.10;1.00
25024;DHT22;13033;50.936;5.334;2022-08-19T09:46:26;24.10;1.00
25024;DHT22;13033;50.936;5.334;2022-08-19T09:48:53;24.00;1.00
25024;DHT22;13033;50.936;5.334;2022-08-19T09:51:24;23.80;1.00
25024;DHT22;13033;50.936;5.334;2022-08-19T09:53:51;23.80;1.00
25024;DHT22;13033;50.936;5.334;2022-08-19T09:56:20;24.20;1.00
25024;DHT22;13033;50.936;5.334;2022-08-19T09:58:46;24.20;1.00
25024;DHT22;13033;50.936;5.334;2022-08-19T10:01:20;24.50;1.00
25024;DHT22;13033;50.936;5.334;2022-08-19T10:03:53;24.30;1.00
25024;DHT22;13033;50.936;5.334;2022-08-19T10:06:21;24.20;1.00
25024;DHT22;13033;50.936;5.334;2022-08-19T10:08:47;23.90;1.00
25024;DHT22;13033;50.936;5.334;2022-08-19T10:11:14;23.90;1.00
25024;DHT22;13033;50.936;5.334;2022-08-19T10:13:43;24.40;1.00
25024;DHT22;13033;50.936;5.334;2022-08-19T10:16:12;24.40;1.00
25024;DHT22;13033;50.936;5.334;2022-08-19T10:18:39;24.60;1.00
25024;DHT22;13033;50.936;5.334;2022-08-19T10:21:20;25.10;1.00
25024;DHT22;13033;50.936;5.334;2022-08-19T10:23:48;25.10;1.00
25024;DHT22;13033;50.936;5.334;2022-08-19T10:26:21;25.20;1.00
25024;DHT22;13033;50.936;5.334;2022-08-19T10:28:47;25.00;1.00
25024;DHT22;13033;50.936;5.334;2022-08-19T10:31:16;25.30;1.00
25024;DHT22;13033;50.936;5.334;2022-08-19T10:33:43;25.50;1.00
25024;DHT22;13033;50.936;5.334;2022-08-19T10:36:20;25.60;1.00
25024;DHT22;13033;50.936;5.334;2022-08-19T10:38:49;25.60;1.00
25024;DHT22;13033;50.936;5.334;2022-08-19T10:41:22;25.70;1.00
25024;DHT22;13033;50.936;5.334;2022-08-19T10:43:51;25.80;1.00
25024;DHT22;13033;50.936;5.334;2022-08-19T10:46:20;25.10;1.00
25024;DHT22;13033;50.936;5.334;2022-08-19T10:48:47;24.90;1.00
25024;DHT22;13033;50.936;5.334;2022-08-19T10:51:13;25.40;1.00
25024;DHT22;13033;50.936;5.334;2022-08-19T10:53:58;25.70;1.00
25024;DHT22;13033;50.936;5.334;2022-08-19T10:56:24;25.60;1.00
25024;DHT22;13033;50.936;5.334;2022-08-19T10:59:09;26.00;1.00
25024;DHT22;13033;50.936;5.334;2022-08-19T11:01:35;26.20;1.00
25024;DHT22;13033;50.936;5.334;2022-08-19T11:04:03;26.30;99.90
25024;DHT22;13033;50.936;5.334;2022-08-19T11:06:31;26.00;1.00
25024;DHT22;13033;50.936;5.334;2022-08-19T11:08:58;25.80;1.00
25024;DHT22;13033;50.936;5.334;2022-08-19T11:11:26;25.60;1.00
25024;DHT22;13033;50.936;5.334;2022-08-19T11:13:51;26.00;1.00
25024;DHT22;13033;50.936;5.334;2022-08-19T11:16:23;26.40;99.90
25024;DHT22;13033;50.936;5.334;2022-08-19T11:18:53;26.50;99.90
25024;DHT22;13033;50.936;5.334;2022-08-19T11:21:22;26.70;99.90
25024;DHT22;13033;50.936;5.334;2022-08-19T11:23:49;26.50;99.90
25024;DHT22;13033;50.936;5.334;2022-08-19T11:26:17;26.80;99.90
25024;DHT22;13033;50.936;5.334;2022-08-19T11:28:43;26.80;99.90
25024;DHT22;13033;50.936;5.334;2022-08-19T11:31:11;26.50;99.90
25024;DHT22;13033;50.936;5.334;2022-08-19T11:33:37;26.30;99.90
25024;DHT22;13033;50.936;5.334;2022-08-19T11:36:03;25.90;1.00
25024;DHT22;13033;50.936;5.334;2022-08-19T11:38:28;26.30;1.00
25024;DHT22;13033;50.936;5.334;2022-08-19T11:41:03;26.70;99.90
25024;DHT22;13033;50.936;5.334;2022-08-19T11:43:30;26.90;99.90
25024;DHT22;13033;50.936;5.334;2022-08-19T11:45:56;26.80;99.90
25024;DHT22;13033;50.936;5.334;2022-08-19T11:48:24;26.80;99.90
25024;DHT22;13033;50.936;5.334;2022-08-19T11:50:52;26.60;99.90
25024;DHT22;13033;50.936;5.334;2022-08-19T11:53:18;26.80;99.90
25024;DHT22;13033;50.936;5.334;2022-08-19T11:55:46;26.90;99.90
25024;DHT22;13033;50.936;5.334;2022-08-19T11:58:13;27.30;99.90
25024;DHT22;13033;50.936;5.334;2022-08-19T12:00:40;27.20;99.90
25024;DHT22;13033;50.936;5.334;2022-08-19T12:03:06;27.40;99.90
25024;DHT22;13033;50.936;5.334;2022-08-19T12:05:32;26.30;1.00
25024;DHT22;13033;50.936;5.334;2022-08-19T12:07:58;26.10;1.00
25024;DHT22;13033;50.936;5.334;2022-08-19T12:10:24;26.70;1.00
25024;DHT22;13033;50.936;5.334;2022-08-19T12:12:50;27.10;99.90
25024;DHT22;13033;50.936;5.334;2022-08-19T12:15:15;26.50;1.00
25024;DHT22;13033;50.936;5.334;2022-08-19T12:17:42;26.80;1.00
25024;DHT22;13033;50.936;5.334;2022-08-19T12:20:10;26.60;1.00
25024;DHT22;13033;50.936;5.334;2022-08-19T12:22:37;26.70;1.00
25024;DHT22;13033;50.936;5.334;2022-08-19T12:25:04;26.90;1.00
25024;DHT22;13033;50.936;5.334;2022-08-19T12:27:31;27.00;1.00
25024;DHT22;13033;50.936;5.334;2022-08-19T12:29:56;26.60;1.00
25024;DHT22;13033;50.936;5.334;2022-08-19T12:32:22;27.00;1.00
25024;DHT22;13033;50.936;5.334;2022-08-19T12:34:50;27.20;99.90
25024;DHT22;13033;50.936;5.334;2022-08-19T12:37:15;27.00;1.00
25024;DHT22;13033;50.936;5.334;2022-08-19T12:39:43;27.10;1.00
25024;DHT22;13033;50.936;5.334;2022-08-19T12:42:10;27.10;1.00
25024;DHT22;13033;50.936;5.334;2022-08-19T12:44:38;26.90;1.00
25024;DHT22;13033;50.936;5.334;2022-08-19T12:47:05;26.80;1.00
25024;DHT22;13033;50.936;5.334;2022-08-19T12:49:32;26.70;1.00
25024;DHT22;13033;50.936;5.334;2022-08-19T12:52:00;26.40;1.00
25024;DHT22;13033;50.936;5.334;2022-08-19T12:54:27;26.20;1.00
25024;DHT22;13033;50.936;5.334;2022-08-19T12:56:52;26.00;1.00
25024;DHT22;13033;50.936;5.334;2022-08-19T12:59:18;26.00;1.00
25024;DHT22;13033;50.936;5.334;2022-08-19T13:01:44;25.90;1.00
25024;DHT22;13033;50.936;5.334;2022-08-19T13:04:10;26.10;1.00
25024;DHT22;13033;50.936;5.334;2022-08-19T13:06:36;26.50;1.00
25024;DHT22;13033;50.936;5.334;2022-08-19T13:09:03;26.50;1.00
25024;DHT22;13033;50.936;5.334;2022-08-19T13:11:29;26.30;1.00
25024;DHT22;13033;50.936;5.334;2022-08-19T13:13:58;26.50;1.00
25024;DHT22;13033;50.936;5.334;2022-08-19T13:16:24;26.40;1.00
25024;DHT22;13033;50.936;5.334;2022-08-19T13:18:51;26.30;1.00
25024;DHT22;13033;50.936;5.334;2022-08-19T13:21:19;26.00;1.00
25024;DHT22;13033;50.936;5.334;2022-08-19T13:23:48;26.00;1.00
25024;DHT22;13033;50.936;5.334;2022-08-19T13:26:15;25.90;1.00
25024;DHT22;13033;50.936;5.334;2022-08-19T13:28:42;25.70;1.00
25024;DHT22;13033;50.936;5.334;2022-08-19T13:31:28;25.50;1.00
25024;DHT22;13033;50.936;5.334;2022-08-19T13:34:13;25.30;1.00
25024;DHT22;13033;50.936;5.334;2022-08-19T13:36:39;25.30;1.00
25024;DHT22;13033;50.936;5.334;2022-08-19T13:39:07;25.20;1.00
25024;DHT22;13033;50.936;5.334;2022-08-19T13:41:36;25.30;1.00
25024;DHT22;13033;50.936;5.334;2022-08-19T13:44:03;25.40;1.00
25024;DHT22;13033;50.936;5.334;2022-08-19T13:46:29;25.40;1.00
25024;DHT22;13033;50.936;5.334;2022-08-19T13:48:56;25.40;1.00
25024;DHT22;13033;50.936;5.334;2022-08-19T13:51:22;25.20;1.00
25024;DHT22;13033;50.936;5.334;2022-08-19T13:53:48;25.20;1.00
25024;DHT22;13033;50.936;5.334;2022-08-19T13:56:16;25.40;1.00
25024;DHT22;13033;50.936;5.334;2022-08-19T13:58:42;25.80;1.00
25024;DHT22;13033;50.936;5.334;2022-08-19T14:01:09;25.90;1.00
25024;DHT22;13033;50.936;5.334;2022-08-19T14:03:35;25.90;1.00
25024;DHT22;13033;50.936;5.334;2022-08-19T14:06:02;26.30;1.00
25024;DHT22;13033;50.936;5.334;2022-08-19T14:08:28;26.40;1.00
25024;DHT22;13033;50.936;5.334;2022-08-19T14:10:58;26.40;1.00
25024;DHT22;13033;50.936;5.334;2022-08-19T14:13:24;26.60;1.00
25024;DHT22;13033;50.936;5.334;2022-08-19T14:15:50;26.80;1.00
25024;DHT22;13033;50.936;5.334;2022-08-19T14:18:17;27.00;1.00
25024;DHT22;13033;50.936;5.334;2022-08-19T14:20:43;27.40;1.00
25024;DHT22;13033;50.936;5.334;2022-08-19T14:23:10;27.90;1.00
25024;DHT22;13033;50.936;5.334;2022-08-19T14:25:37;28.20;1.00
25024;DHT22;13033;50.936;5.334;2022-08-19T14:28:03;28.10;99.90
25024;DHT22;13033;50.936;5.334;2022-08-19T14:30:34;27.90;1.00
25024;DHT22;13033;50.936;5.334;2022-08-19T14:33:01;27.80;1.00
25024;DHT22;13033;50.936;5.334;2022-08-19T14:35:28;28.00;1.00
25024;DHT22;13033;50.936;5.334;2022-08-19T14:37:54;29.00;99.90
25024;DHT22;13033;50.936;5.334;2022-08-19T14:40:23;29.40;99.90
25024;DHT22;13033;50.936;5.334;2022-08-19T14:42:57;29.60;1.00
25024;DHT22;13033;50.936;5.334;2022-08-19T14:45:27;29.90;99.90
25024;DHT22;13033;50.936;5.334;2022-08-19T14:47:53;28.90;99.90
25024;DHT22;13033;50.936;5.334;2022-08-19T14:50:19;28.10;99.90
25024;DHT22;13033;50.936;5.334;2022-08-19T14:52:46;28.00;99.90
25024;DHT22;13033;50.936;5.334;2022-08-19T14:55:14;28.60;99.90
25024;DHT22;13033;50.936;5.334;2022-08-19T14:57:43;29.80;1.00
25024;DHT22;13033;50.936;5.334;2022-08-19T15:00:10;29.80;1.00
25024;DHT22;13033;50.936;5.334;2022-08-19T15:02:40;30.00;99.90
25024;DHT22;13033;50.936;5.334;2022-08-19T15:05:06;29.60;1.00
25024;DHT22;13033;50.936;5.334;2022-08-19T15:07:32;28.80;99.90
25024;DHT22;13033;50.936;5.334;2022-08-19T15:09:58;28.60;99.90
25024;DHT22;13033;50.936;5.334;2022-08-19T15:12:24;28.30;99.90
25024;DHT22;13033;50.936;5.334;2022-08-19T15:14:50;28.30;99.90
25024;DHT22;13033;50.936;5.334;2022-08-19T15:17:16;28.40;99.90
25024;DHT22;13033;50.936;5.334;2022-08-19T15:19:42;28.00;99.90
25024;DHT22;13033;50.936;5.334;2022-08-19T15:22:08;27.30;1.00
25024;DHT22;13033;50.936;5.334;2022-08-19T15:24:35;27.00;1.00
25024;DHT22;13033;50.936;5.334;2022-08-19T15:27:01;26.90;1.00
25024;DHT22;13033;50.936;5.334;2022-08-19T15:29:27;27.00;1.00
25024;DHT22;13033;50.936;5.334;2022-08-19T15:31:53;27.10;1.00
25024;DHT22;13033;50.936;5.334;2022-08-19T15:34:23;26.80;1.00
25024;DHT22;13033;50.936;5.334;2022-08-19T15:36:52;26.80;1.00
25024;DHT22;13033;50.936;5.334;2022-08-19T15:39:18;26.90;1.00
25024;DHT22;13033;50.936;5.334;2022-08-19T15:41:45;27.10;1.00
25024;DHT22;13033;50.936;5.334;2022-08-19T15:44:15;27.00;1.00